Bert Mooney Airport Butte US
ICAO: KBTM
IATA: BTM
Category: Medium
Scheduled Services: Yes

Elevation: 5550 ft
TransAlt. 18000 ft.

Airport Communications:
ASOS:135.175
SALT LAKE CITY CNTR:132.4
GREAT FALLS RDO:122.2
CTAF/UNICOM:123

KBTM Zoom In..

Runways:

(A) RW 12 length 5100 ft width 75 ft
---- / hdg 113

(B) RW 15 length 9001 ft width 150 ft
ILS 110.90 / hdg 151

(C) RW 30 length 5100 ft width 75 ft
---- / hdg 293

(D) RW 33 length 9001 ft width 150 ft
---- / hdg 331

Location; KBTM
Day. 06 / Time. 05.53 Zulu
* Altimeter: 29.72
* Temperature: 21° c. 69.8°f.
* Wind from: 230° Speed 13 kn.
Dewpoint: 06° c.
Visibility: 10 Statute Miles.
Clouds: Few 5500 ft.
Clouds: Broken 7500 ft.
Clouds: Overcast 1000 ft.
Conditions: Light Rain.

KBTM 060553Z AUTO 23013KT 10SM -RA FEW055 BKN075 OVC100 21/06 A2972 RMK AO2 PK WND 17027/0459 RAB0457E06B34 PRESRR SLP999 P0000 60000 T02060056 10278 20194 53012 $


Wind From 230°
Speed 13 kn.

 
 
jpsmedia worldairports.se 2020   terms of use